createdAt,value
2019-02-28T06:40:40.669Z,101644.72
2019-02-28T06:43:32.146Z,101643.08
2019-02-28T06:46:23.483Z,101641.09
2019-02-28T06:49:14.904Z,101657.16
2019-02-28T06:52:07.616Z,101657.84
2019-02-28T06:54:59.346Z,101662.28
2019-02-28T06:57:50.868Z,101667.43
2019-02-28T07:00:44.222Z,101673.22
2019-02-28T07:03:39.004Z,101674.72
2019-02-28T07:06:28.201Z,101660.29
2019-02-28T07:09:19.811Z,101669.62
2019-02-28T07:12:13.212Z,101656.09
2019-02-28T07:15:05.876Z,101663.98
2019-02-28T07:17:57.917Z,101669.46
2019-02-28T07:20:50.441Z,101668.32
2019-02-28T07:23:41.825Z,101669.08
2019-02-28T07:26:33.449Z,101675.23
2019-02-28T07:29:25.219Z,101676.16
2019-02-28T07:32:16.592Z,101677.41
2019-02-28T07:35:08.519Z,101678.61
2019-02-28T07:38:00.101Z,101686.31
2019-02-28T07:40:52.014Z,101683.27
2019-02-28T07:43:46.136Z,101685.03
2019-02-28T07:46:38.513Z,101681.11
2019-02-28T07:49:35.881Z,101681.18
2019-02-28T07:52:24.652Z,101683.69
2019-02-28T07:55:16.320Z,101682.10
2019-02-28T07:58:07.760Z,101688.52
2019-02-28T08:00:59.049Z,101693.22
2019-02-28T08:03:51.359Z,101691.84
2019-02-28T08:06:42.973Z,101700.12
2019-02-28T08:09:36.868Z,101702.80
2019-02-28T08:12:30.855Z,101693.87
2019-02-28T08:15:22.998Z,101695.23
2019-02-28T08:18:15.859Z,101693.81
2019-02-28T08:21:09.397Z,101688.05
2019-02-28T08:24:02.550Z,101684.72
2019-02-28T08:26:54.799Z,101684.32
2019-02-28T08:29:47.293Z,101688.47
2019-02-28T08:32:42.692Z,101693.58
2019-02-28T08:35:34.900Z,101703.47
2019-02-28T08:38:25.166Z,101716.68
2019-02-28T08:41:17.423Z,101719.04
2019-02-28T08:44:09.061Z,101719.34
2019-02-28T08:47:01.625Z,101725.30
2019-02-28T08:49:53.075Z,101723.07
2019-02-28T08:52:44.478Z,101725.68
2019-02-28T08:55:38.261Z,101725.98
2019-02-28T08:58:29.267Z,101719.13
2019-02-28T09:01:20.699Z,101724.02
2019-02-28T09:04:12.349Z,101722.27
2019-02-28T09:07:03.994Z,101723.19
2019-02-28T09:09:55.374Z,101726.59
2019-02-28T09:12:47.846Z,101722.83
2019-02-28T09:15:40.242Z,101714.11
2019-02-28T09:18:31.781Z,101714.16
2019-02-28T09:21:23.370Z,101709.14
2019-02-28T09:24:14.850Z,101705.23
2019-02-28T09:27:06.828Z,101701.70
2019-02-28T09:29:58.504Z,101697.09
2019-02-28T09:32:49.904Z,101709.81
2019-02-28T09:35:45.045Z,101719.89
2019-02-28T09:38:34.775Z,101725.17
2019-02-28T09:41:26.528Z,101727.39
2019-02-28T09:44:18.047Z,101723.69
2019-02-28T09:47:11.747Z,101725.44
2019-02-28T09:50:02.912Z,101720.91
2019-02-28T09:52:54.455Z,101723.68
2019-02-28T09:55:45.984Z,101737.12
2019-02-28T09:58:37.499Z,101730.32
2019-02-28T10:01:30.626Z,101734.14
2019-02-28T10:04:22.275Z,101725.39
2019-02-28T10:07:14.534Z,101734.41
2019-02-28T10:10:07.520Z,101723.53
2019-02-28T10:12:58.926Z,101718.28
2019-02-28T10:15:51.156Z,101713.33
2019-02-28T10:18:44.269Z,101708.39
2019-02-28T10:21:36.509Z,101704.81
2019-02-28T10:24:31.418Z,101698.16
2019-02-28T10:27:26.438Z,101695.65
2019-02-28T10:30:30.525Z,101691.62
2019-02-28T10:33:14.323Z,101691.48
2019-02-28T10:36:05.692Z,101690.42
2019-02-28T10:38:56.999Z,101687.81
2019-02-28T10:41:48.490Z,101687.69
2019-02-28T10:44:40.494Z,101693.81
2019-02-28T10:47:32.577Z,101694.09
2019-02-28T10:50:26.031Z,101696.09
2019-02-28T10:53:17.412Z,101704.36
2019-02-28T10:56:08.821Z,101707.08
2019-02-28T10:59:00.203Z,101709.73
2019-02-28T11:01:52.491Z,101708.47
2019-02-28T11:04:44.076Z,101712.16
2019-02-28T11:07:37.876Z,101708.31
2019-02-28T11:10:37.377Z,101708.63
2019-02-28T11:13:32.126Z,101708.60
2019-02-28T11:16:23.657Z,101713.33
2019-02-28T11:19:18.662Z,101701.73
2019-02-28T11:22:08.704Z,101699.94
2019-02-28T11:25:00.848Z,101694.53
2019-02-28T11:27:54.571Z,101688.47
2019-02-28T11:30:47.915Z,101683.41
2019-02-28T11:33:40.392Z,101697.44
2019-02-28T11:36:34.172Z,101692.58
2019-02-28T11:39:27.584Z,101687.80
2019-02-28T11:42:19.123Z,101688.56
2019-02-28T11:45:18.592Z,101681.67
2019-02-28T11:48:12.738Z,101675.88
2019-02-28T11:51:05.183Z,101673.50
2019-02-28T11:53:56.757Z,101679.68
2019-02-28T11:56:48.078Z,101677.30
2019-02-28T11:59:39.502Z,101666.94
2019-02-28T12:02:31.770Z,101660.54
2019-02-28T12:05:24.538Z,101659.16
2019-02-28T12:08:16.010Z,101660.03
2019-02-28T12:11:07.330Z,101667.78
2019-02-28T12:13:58.995Z,101667.08
2019-02-28T12:16:53.624Z,101669.31
2019-02-28T12:19:43.463Z,101662.92
2019-02-28T12:22:35.100Z,101662.36
2019-02-28T12:25:26.817Z,101660.08
2019-02-28T12:28:18.543Z,101658.25
2019-02-28T12:31:10.285Z,101665.66
2019-02-28T12:34:02.312Z,101665.16
2019-02-28T12:36:55.624Z,101644.86
2019-02-28T12:39:47.014Z,101641.31
2019-02-28T12:42:38.655Z,101643.21
2019-02-28T12:45:33.892Z,101642.50
2019-02-28T12:48:27.051Z,101637.84
2019-02-28T12:51:18.953Z,101638.17
2019-02-28T12:54:10.547Z,101634.73
2019-02-28T12:57:02.099Z,101632.78
2019-02-28T12:59:53.699Z,101630.81
2019-02-28T13:02:47.174Z,101641.51
2019-02-28T13:05:39.234Z,101633.70
2019-02-28T13:08:31.567Z,101622.14
2019-02-28T13:11:23.600Z,101614.75
2019-02-28T13:14:15.416Z,101615.88
2019-02-28T13:17:07.579Z,101626.94
2019-02-28T13:19:59.172Z,101622.30
2019-02-28T13:22:50.834Z,101626.00
2019-02-28T13:25:42.633Z,101619.83
2019-02-28T13:28:34.667Z,101626.77
2019-02-28T13:31:27.417Z,101618.48
2019-02-28T13:34:19.246Z,101625.16
2019-02-28T13:37:10.636Z,101623.48
2019-02-28T13:40:04.346Z,101617.98
2019-02-28T13:42:55.219Z,101617.33
2019-02-28T13:45:50.951Z,101607.15
2019-02-28T13:48:40.288Z,101613.16
2019-02-28T13:51:40.609Z,101603.05
2019-02-28T13:54:27.003Z,101595.78
2019-02-28T13:57:20.294Z,101586.92
2019-02-28T14:00:25.547Z,101585.00
2019-02-28T14:03:17.289Z,101578.69
2019-02-28T14:06:12.212Z,101590.50
2019-02-28T14:09:02.301Z,101582.52
2019-02-28T14:11:55.747Z,101575.31
2019-02-28T14:14:47.919Z,101577.47
2019-02-28T14:17:40.550Z,101569.95
2019-02-28T14:20:32.167Z,101568.56
2019-02-28T14:23:23.650Z,101561.64
2019-02-28T14:26:15.203Z,101564.05
2019-02-28T14:29:07.150Z,101568.24
2019-02-28T14:31:59.783Z,101565.84
2019-02-28T14:34:51.077Z,101563.66
2019-02-28T14:37:43.321Z,101556.08
2019-02-28T14:40:35.025Z,101558.65
2019-02-28T14:43:26.647Z,101558.20
2019-02-28T14:46:19.099Z,101548.02
2019-02-28T14:49:12.525Z,101544.56
2019-02-28T14:52:06.580Z,101538.81
2019-02-28T14:54:58.674Z,101540.55
2019-02-28T14:57:52.102Z,101541.82
2019-02-28T15:00:43.811Z,101544.33
2019-02-28T15:03:36.117Z,101545.61
2019-02-28T15:06:30.711Z,101546.41
2019-02-28T15:09:28.243Z,101536.98
2019-02-28T15:12:23.421Z,101534.25
2019-02-28T15:15:18.090Z,101530.94
2019-02-28T15:18:14.918Z,101519.45
2019-02-28T15:21:11.529Z,101525.56
2019-02-28T15:24:08.521Z,101518.41
2019-02-28T15:27:04.129Z,101520.91
2019-02-28T15:29:58.835Z,101517.05
2019-02-28T15:32:50.716Z,101511.11
2019-02-28T15:35:46.641Z,101520.74
2019-02-28T15:38:41.841Z,101510.30
2019-02-28T15:41:33.680Z,101509.30
2019-02-28T15:44:29.135Z,101507.81
2019-02-28T15:47:23.226Z,101502.55
2019-02-28T15:50:17.147Z,101502.89
2019-02-28T15:53:15.079Z,101497.27
2019-02-28T15:56:12.987Z,101492.66
2019-02-28T15:59:01.107Z,101489.51
2019-02-28T16:01:54.570Z,101481.70
2019-02-28T16:04:46.292Z,101476.67
2019-02-28T16:07:38.488Z,101480.72
2019-02-28T16:10:33.024Z,101468.92
2019-02-28T16:13:25.970Z,101460.08
2019-02-28T16:16:18.119Z,101452.10
2019-02-28T16:19:09.487Z,101453.36
2019-02-28T16:22:01.478Z,101457.02
2019-02-28T16:24:53.332Z,101455.21
2019-02-28T16:27:46.377Z,101450.30
2019-02-28T16:30:40.060Z,101452.50
2019-02-28T16:33:35.846Z,101445.54
2019-02-28T16:36:32.492Z,101441.78
2019-02-28T16:39:31.801Z,101439.27
2019-02-28T16:42:25.900Z,101433.37
2019-02-28T16:45:44.718Z,101436.18
2019-02-28T16:48:44.949Z,101437.52
2019-02-28T16:51:38.882Z,101436.25
2019-02-28T16:54:41.177Z,101428.93
2019-02-28T16:57:34.705Z,101428.47
2019-02-28T17:00:30.981Z,101423.51
2019-02-28T17:03:26.943Z,101422.83
2019-02-28T17:06:19.702Z,101424.42
2019-02-28T17:09:19.811Z,101423.59
2019-02-28T17:12:29.682Z,101422.77
2019-02-28T17:15:28.413Z,101423.04
2019-02-28T17:18:22.544Z,101420.01
2019-02-28T17:21:17.966Z,101420.78
2019-02-28T17:24:22.003Z,101422.25
2019-02-28T17:27:51.256Z,101425.34
2019-02-28T17:31:03.257Z,101425.92
2019-02-28T17:33:58.716Z,101422.61
2019-02-28T17:36:52.732Z,101425.56
2019-02-28T17:39:51.115Z,101427.38
2019-02-28T17:42:43.299Z,101428.19
2019-02-28T17:45:38.083Z,101416.23
2019-02-28T17:49:41.994Z,101409.81
2019-02-28T17:52:49.814Z,101405.31
2019-02-28T17:56:37.543Z,101409.19
2019-02-28T18:00:20.651Z,101402.30
2019-02-28T18:04:31.497Z,101402.41
2019-02-28T18:08:00.531Z,101408.59
2019-02-28T18:11:44.315Z,101412.63
2019-02-28T18:15:57.080Z,101414.80
2019-02-28T18:20:00.302Z,101414.67
2019-02-28T18:23:29.143Z,101407.22
2019-02-28T18:27:08.343Z,101404.69
2019-02-28T18:31:11.622Z,101393.95
2019-02-28T18:34:20.564Z,101394.83
2019-02-28T18:37:12.880Z,101393.37
2019-02-28T18:40:04.993Z,101386.88
2019-02-28T18:42:58.291Z,101385.48
2019-02-28T18:45:49.874Z,101377.53
2019-02-28T18:48:41.576Z,101379.69
2019-02-28T18:51:33.360Z,101386.33
2019-02-28T18:54:25.505Z,101385.91
2019-02-28T18:57:17.224Z,101388.41
2019-02-28T19:00:13.424Z,101382.69
2019-02-28T19:03:05.235Z,101382.92
2019-02-28T19:05:56.832Z,101384.42
2019-02-28T19:08:49.014Z,101381.59
2019-02-28T19:11:41.455Z,101381.02
2019-02-28T19:14:33.030Z,101373.23
2019-02-28T19:17:24.716Z,101373.23
2019-02-28T19:20:17.045Z,101372.09
2019-02-28T19:23:09.805Z,101366.86
2019-02-28T19:26:02.311Z,101371.52
2019-02-28T19:28:56.574Z,101370.32
2019-02-28T19:31:51.492Z,101372.02
2019-02-28T19:34:43.525Z,101368.72
2019-02-28T19:37:35.860Z,101369.97
2019-02-28T19:40:27.395Z,101369.83
2019-02-28T19:43:19.931Z,101368.09
2019-02-28T19:46:11.666Z,101371.33
2019-02-28T19:49:03.324Z,101365.95
2019-02-28T19:51:54.952Z,101361.72
2019-02-28T19:54:46.352Z,101356.00
2019-02-28T19:57:37.991Z,101362.36
2019-02-28T20:00:29.499Z,101363.86
2019-02-28T20:03:21.043Z,101366.25
2019-02-28T20:06:12.598Z,101363.52
2019-02-28T20:09:05.287Z,101359.13
2019-02-28T20:11:58.766Z,101362.98
2019-02-28T20:14:50.376Z,101363.37
2019-02-28T20:17:41.876Z,101361.92
2019-02-28T20:20:34.032Z,101361.66
2019-02-28T20:23:25.765Z,101362.59
2019-02-28T20:26:17.238Z,101363.55
2019-02-28T20:29:09.743Z,101360.46
2019-02-28T20:32:01.666Z,101351.73
2019-02-28T20:34:53.209Z,101344.13
2019-02-28T20:37:44.649Z,101342.86
2019-02-28T20:40:36.264Z,101342.95
2019-02-28T20:43:27.782Z,101337.97
2019-02-28T20:46:20.961Z,101342.91
2019-02-28T20:49:12.429Z,101346.20
2019-02-28T20:52:03.907Z,101343.88
2019-02-28T20:54:55.683Z,101344.61
2019-02-28T20:57:48.192Z,101342.52
2019-02-28T21:00:41.105Z,101337.42
2019-02-28T21:03:32.871Z,101338.22
2019-02-28T21:06:24.446Z,101336.46
2019-02-28T21:09:17.906Z,101336.33
2019-02-28T21:12:09.602Z,101337.84
2019-02-28T21:15:01.515Z,101329.23
2019-02-28T21:17:54.743Z,101328.31
2019-02-28T21:20:47.051Z,101331.34
2019-02-28T21:23:39.332Z,101327.38
2019-02-28T21:26:31.132Z,101329.95
2019-02-28T21:29:22.755Z,101329.94
2019-02-28T21:32:14.396Z,101328.50
2019-02-28T21:35:07.215Z,101332.13
2019-02-28T21:37:59.315Z,101333.42
2019-02-28T21:40:51.414Z,101331.98
2019-02-28T21:43:42.896Z,101329.41
2019-02-28T21:46:35.352Z,101330.19
2019-02-28T21:49:27.052Z,101327.45
2019-02-28T21:52:19.310Z,101324.36
2019-02-28T21:55:12.481Z,101315.16
2019-02-28T21:58:04.859Z,101321.78
2019-02-28T22:00:57.199Z,101319.51
2019-02-28T22:03:49.140Z,101314.36
2019-02-28T22:06:40.920Z,101312.97
2019-02-28T22:09:32.514Z,101314.07
2019-02-28T22:12:24.158Z,101310.48
2019-02-28T22:15:17.687Z,101311.09
2019-02-28T22:18:09.326Z,101307.27
2019-02-28T22:21:00.949Z,101299.95
2019-02-28T22:23:52.593Z,101297.23
2019-02-28T22:26:44.288Z,101291.92
2019-02-28T22:29:35.615Z,101292.38
2019-02-28T22:32:32.917Z,101290.96
2019-02-28T22:35:31.427Z,101287.83
2019-02-28T22:38:22.836Z,101293.08
2019-02-28T22:41:14.531Z,101290.47
2019-02-28T22:44:07.300Z,101295.88
2019-02-28T22:46:58.737Z,101294.44
2019-02-28T22:49:50.464Z,101291.25
2019-02-28T22:52:41.999Z,101288.70
2019-02-28T22:55:33.459Z,101289.55
2019-02-28T22:58:25.157Z,101285.89
2019-02-28T23:01:19.896Z,101291.73
2019-02-28T23:04:11.311Z,101286.06
2019-02-28T23:07:04.772Z,101289.80
2019-02-28T23:09:56.264Z,101285.75
2019-02-28T23:12:47.955Z,101293.32
2019-02-28T23:15:39.629Z,101296.50
2019-02-28T23:18:31.184Z,101287.70
2019-02-28T23:21:22.999Z,101283.25
2019-02-28T23:24:14.602Z,101282.17
2019-02-28T23:27:22.210Z,101287.27
2019-02-28T23:30:40.551Z,101284.21
2019-02-28T23:33:32.474Z,101289.72
2019-02-28T23:36:24.162Z,101279.84
2019-02-28T23:39:15.603Z,101280.63
2019-02-28T23:42:07.165Z,101275.88
2019-02-28T23:44:58.940Z,101272.66
2019-02-28T23:47:50.292Z,101266.12
2019-02-28T23:50:41.913Z,101261.52
2019-02-28T23:53:33.373Z,101262.09
2019-02-28T23:56:25.078Z,101257.92
2019-02-28T23:59:17.474Z,101258.23
